Time,TemperatureF,DewpointF,PressureIn,WindDirection,WindDirectionDegrees,WindSpeedMPH,WindSpeedGustMPH,Humidity,HourlyPrecipIn,Conditions,Clouds,dailyrainin,SoftwareType,DateUTC
2013-02-04 00:00:00,20.0,-99.9,29.86,SW,220,9.0,14.0,-999,-99.99,,,-99.99,,2013-02-04 05:00:00,
2013-02-04 00:22:00,20.0,-99.9,29.86,SW,220,9.0,14.0,-999,-99.99,,,-99.99,,2013-02-04 05:22:00,
2013-02-04 00:33:00,20.0,-99.9,29.86,SW,220,9.0,14.0,-999,-99.99,,,-99.99,,2013-02-04 05:33:00,
2013-02-04 00:42:00,20.0,-99.9,29.86,SW,220,9.0,14.0,-999,-99.99,,,-99.99,,2013-02-04 05:42:00,
2013-02-04 00:52:00,20.0,-99.9,29.86,SW,220,9.0,14.0,-999,-99.99,,,-99.99,,2013-02-04 05:52:00,
2013-02-04 01:00:00,19.0,-99.9,29.87,SW,220,10.0,15.0,-999,-99.99,,,-99.99,,2013-02-04 06:00:00,
2013-02-04 01:22:00,19.0,-99.9,29.87,SW,220,10.0,15.0,-999,-99.99,,,-99.99,,2013-02-04 06:22:00,
2013-02-04 01:32:00,19.0,-99.9,29.87,SW,220,10.0,15.0,-999,-99.99,,,-99.99,,2013-02-04 06:32:00,
2013-02-04 01:42:00,19.0,-99.9,29.87,SW,220,10.0,15.0,-999,-99.99,,,-99.99,,2013-02-04 06:42:00,
2013-02-04 01:52:00,19.0,-99.9,29.87,SW,220,10.0,15.0,-999,-99.99,,,-99.99,,2013-02-04 06:52:00,
2013-02-04 02:00:00,19.0,-99.9,29.88,SW,230,13.0,17.0,-999,-99.99,,,-99.99,,2013-02-04 07:00:00,
2013-02-04 02:22:00,19.0,-99.9,29.88,SW,230,13.0,17.0,-999,-99.99,,,-99.99,,2013-02-04 07:22:00,
2013-02-04 02:32:00,19.0,-99.9,29.88,SW,230,13.0,17.0,-999,-99.99,,,-99.99,,2013-02-04 07:32:00,
2013-02-04 02:42:00,19.0,-99.9,29.88,SW,230,13.0,17.0,-999,-99.99,,,-99.99,,2013-02-04 07:42:00,
2013-02-04 02:52:00,19.0,-99.9,29.88,SW,230,13.0,17.0,-999,-99.99,,,-99.99,,2013-02-04 07:52:00,
2013-02-04 03:00:00,19.0,-99.9,29.90,SW,220,14.0,18.0,-999,-99.99,,,-99.99,,2013-02-04 08:00:00,
2013-02-04 03:21:00,19.0,-99.9,29.90,SW,220,14.0,18.0,-999,-99.99,,,-99.99,,2013-02-04 08:21:00,
2013-02-04 03:32:00,19.0,-99.9,29.90,SW,220,14.0,18.0,-999,-99.99,,,-99.99,,2013-02-04 08:32:00,
2013-02-04 03:42:00,19.0,-99.9,29.90,SW,220,14.0,18.0,-999,-99.99,,,-99.99,,2013-02-04 08:42:00,
2013-02-04 03:52:00,19.0,-99.9,29.90,SW,220,14.0,18.0,-999,-99.99,,,-99.99,,2013-02-04 08:52:00,
2013-02-04 04:00:00,21.0,-99.9,29.91,WSW,250,23.0,31.0,-999,-99.99,,,-99.99,,2013-02-04 09:00:00,
2013-02-04 04:22:00,21.0,-99.9,29.91,WSW,250,23.0,31.0,-999,-99.99,,,-99.99,,2013-02-04 09:22:00,
2013-02-04 04:32:00,21.0,-99.9,29.91,WSW,250,23.0,31.0,-999,-99.99,,,-99.99,,2013-02-04 09:32:00,
2013-02-04 04:42:00,21.0,-99.9,29.91,WSW,250,23.0,31.0,-999,-99.99,,,-99.99,,2013-02-04 09:42:00,
2013-02-04 04:52:00,21.0,-99.9,29.91,WSW,250,23.0,31.0,-999,-99.99,,,-99.99,,2013-02-04 09:52:00,
2013-02-04 05:00:00,21.0,-99.9,29.92,WSW,250,16.0,25.0,-999,-99.99,,,-99.99,,2013-02-04 10:00:00,
2013-02-04 05:22:00,21.0,-99.9,29.92,WSW,250,16.0,25.0,-999,-99.99,,,-99.99,,2013-02-04 10:22:00,
2013-02-04 05:32:00,21.0,-99.9,29.92,WSW,250,16.0,25.0,-999,-99.99,,,-99.99,,2013-02-04 10:32:00,
2013-02-04 05:42:00,21.0,-99.9,29.92,WSW,250,16.0,25.0,-999,-99.99,,,-99.99,,2013-02-04 10:42:00,
2013-02-04 05:52:00,21.0,-99.9,29.92,WSW,250,16.0,25.0,-999,-99.99,,,-99.99,,2013-02-04 10:52:00,
2013-02-04 06:00:00,20.0,-99.9,29.93,WSW,240,16.0,22.0,-999,-99.99,,,-99.99,,2013-02-04 11:00:00,
2013-02-04 06:22:00,20.0,-99.9,29.93,WSW,240,16.0,22.0,-999,-99.99,,,-99.99,,2013-02-04 11:22:00,
2013-02-04 06:33:00,20.0,-99.9,29.93,WSW,240,16.0,22.0,-999,-99.99,,,-99.99,,2013-02-04 11:33:00,
2013-02-04 06:42:00,20.0,-99.9,29.93,WSW,240,16.0,22.0,-999,-99.99,,,-99.99,,2013-02-04 11:42:00,
2013-02-04 06:53:00,20.0,-99.9,29.93,WSW,240,16.0,22.0,-999,-99.99,,,-99.99,,2013-02-04 11:53:00,
2013-02-04 07:00:00,17.0,-99.9,29.95,SW,220,11.0,17.0,-999,-99.99,,,-99.99,,2013-02-04 12:00:00,
2013-02-04 07:22:00,17.0,-99.9,29.95,SW,220,11.0,17.0,-999,-99.99,,,-99.99,,2013-02-04 12:22:00,
2013-02-04 07:33:00,17.0,-99.9,29.95,SW,220,11.0,17.0,-999,-99.99,,,-99.99,,2013-02-04 12:33:00,
2013-02-04 07:42:00,17.0,-99.9,29.95,SW,220,11.0,17.0,-999,-99.99,,,-99.99,,2013-02-04 12:42:00,
2013-02-04 07:53:00,17.0,-99.9,29.95,SW,220,11.0,17.0,-999,-99.99,,,-99.99,,2013-02-04 12:53:00,
2013-02-04 08:00:00,16.0,-99.9,29.96,SW,220,10.0,15.0,-999,-99.99,,,-99.99,,2013-02-04 13:00:00,
2013-02-04 08:22:00,16.0,-99.9,29.96,SW,220,10.0,15.0,-999,-99.99,,,-99.99,,2013-02-04 13:22:00,
2013-02-04 08:33:00,16.0,-99.9,29.96,SW,220,10.0,15.0,-999,-99.99,,,-99.99,,2013-02-04 13:33:00,
2013-02-04 08:42:00,16.0,-99.9,29.96,SW,220,10.0,15.0,-999,-99.99,,,-99.99,,2013-02-04 13:42:00,
2013-02-04 08:52:00,16.0,-99.9,29.96,SW,220,10.0,15.0,-999,-99.99,,,-99.99,,2013-02-04 13:52:00,
2013-02-04 09:00:00,16.0,-99.9,29.97,SSW,210,10.0,16.0,-999,-99.99,,,-99.99,,2013-02-04 14:00:00,
2013-02-04 09:23:00,16.0,-99.9,29.97,SSW,210,10.0,16.0,-999,-99.99,,,-99.99,,2013-02-04 14:23:00,
2013-02-04 09:33:00,16.0,-99.9,29.97,SSW,210,10.0,16.0,-999,-99.99,,,-99.99,,2013-02-04 14:33:00,
2013-02-04 09:42:00,16.0,-99.9,29.97,SSW,210,10.0,16.0,-999,-99.99,,,-99.99,,2013-02-04 14:42:00,
2013-02-04 09:53:00,16.0,-99.9,29.97,SSW,210,10.0,16.0,-999,-99.99,,,-99.99,,2013-02-04 14:53:00,
2013-02-04 10:00:00,18.0,-99.9,29.97,SW,220,10.0,15.0,-999,-99.99,,,-99.99,,2013-02-04 15:00:00,
2013-02-04 10:24:00,18.0,-99.9,29.97,SW,220,10.0,15.0,-999,-99.99,,,-99.99,,2013-02-04 15:24:00,
2013-02-04 10:33:00,18.0,-99.9,29.97,SW,220,10.0,15.0,-999,-99.99,,,-99.99,,2013-02-04 15:33:00,
2013-02-04 10:43:00,18.0,-99.9,29.97,SW,220,10.0,15.0,-999,-99.99,,,-99.99,,2013-02-04 15:43:00,
2013-02-04 10:53:00,18.0,-99.9,29.97,SW,220,10.0,15.0,-999,-99.99,,,-99.99,,2013-02-04 15:53:00,
2013-02-04 11:00:00,21.0,-99.9,29.96,WSW,250,16.0,21.0,-999,-99.99,,,-99.99,,2013-02-04 16:00:00,
2013-02-04 11:23:00,21.0,-99.9,29.96,WSW,250,16.0,21.0,-999,-99.99,,,-99.99,,2013-02-04 16:23:00,
2013-02-04 11:33:00,21.0,-99.9,29.96,WSW,250,16.0,21.0,-999,-99.99,,,-99.99,,2013-02-04 16:33:00,
2013-02-04 11:43:00,21.0,-99.9,29.96,WSW,250,16.0,21.0,-999,-99.99,,,-99.99,,2013-02-04 16:43:00,
2013-02-04 11:52:00,21.0,-99.9,29.96,WSW,250,16.0,21.0,-999,-99.99,,,-99.99,,2013-02-04 16:52:00,
2013-02-04 12:00:00,21.0,-99.9,29.96,WSW,240,13.0,16.0,-999,-99.99,,,-99.99,,2013-02-04 17:00:00,
2013-02-04 12:21:00,21.0,-99.9,29.96,WSW,240,13.0,16.0,-999,-99.99,,,-99.99,,2013-02-04 17:21:00,
2013-02-04 12:32:00,21.0,-99.9,29.96,WSW,240,13.0,16.0,-999,-99.99,,,-99.99,,2013-02-04 17:32:00,
2013-02-04 12:42:00,21.0,-99.9,29.96,WSW,240,13.0,16.0,-999,-99.99,,,-99.99,,2013-02-04 17:42:00,
2013-02-04 12:52:00,21.0,-99.9,29.96,WSW,240,13.0,16.0,-999,-99.99,,,-99.99,,2013-02-04 17:52:00,
2013-02-04 13:00:00,21.0,-99.9,29.94,WSW,240,11.0,20.0,-999,-99.99,,,-99.99,,2013-02-04 18:00:00,
2013-02-04 13:22:00,21.0,-99.9,29.94,WSW,240,11.0,20.0,-999,-99.99,,,-99.99,,2013-02-04 18:22:00,
2013-02-04 13:33:00,21.0,-99.9,29.94,WSW,240,11.0,20.0,-999,-99.99,,,-99.99,,2013-02-04 18:33:00,
2013-02-04 13:42:00,21.0,-99.9,29.94,WSW,240,11.0,20.0,-999,-99.99,,,-99.99,,2013-02-04 18:42:00,
2013-02-04 13:52:00,21.0,-99.9,29.94,WSW,240,11.0,20.0,-999,-99.99,,,-99.99,,2013-02-04 18:52:00,
2013-02-04 14:00:00,22.0,-99.9,29.93,WSW,250,8.0,14.0,-999,-99.99,,,-99.99,,2013-02-04 19:00:00,
2013-02-04 14:23:00,22.0,-99.9,29.93,WSW,250,8.0,14.0,-999,-99.99,,,-99.99,,2013-02-04 19:23:00,
2013-02-04 14:32:00,22.0,-99.9,29.93,WSW,250,8.0,14.0,-999,-99.99,,,-99.99,,2013-02-04 19:32:00,
2013-02-04 14:42:00,22.0,-99.9,29.93,WSW,250,8.0,14.0,-999,-99.99,,,-99.99,,2013-02-04 19:42:00,
2013-02-04 14:52:00,22.0,-99.9,29.93,WSW,250,8.0,14.0,-999,-99.99,,,-99.99,,2013-02-04 19:52:00,
2013-02-04 15:00:00,21.0,-99.9,29.92,SSW,210,8.0,11.0,-999,-99.99,,,-99.99,,2013-02-04 20:00:00,
2013-02-04 15:22:00,21.0,-99.9,29.92,SSW,210,8.0,11.0,-999,-99.99,,,-99.99,,2013-02-04 20:22:00,
2013-02-04 15:32:00,21.0,-99.9,29.92,SSW,210,8.0,11.0,-999,-99.99,,,-99.99,,2013-02-04 20:32:00,
2013-02-04 15:42:00,21.0,-99.9,29.92,SSW,210,8.0,11.0,-999,-99.99,,,-99.99,,2013-02-04 20:42:00,
2013-02-04 15:52:00,21.0,-99.9,29.92,SSW,210,8.0,11.0,-999,-99.99,,,-99.99,,2013-02-04 20:52:00,
2013-02-04 16:00:00,21.0,-99.9,29.92,WSW,240,9.0,14.0,-999,-99.99,,,-99.99,,2013-02-04 21:00:00,
2013-02-04 16:23:00,21.0,-99.9,29.92,WSW,240,9.0,14.0,-999,-99.99,,,-99.99,,2013-02-04 21:23:00,
2013-02-04 16:32:00,21.0,-99.9,29.92,WSW,240,9.0,14.0,-999,-99.99,,,-99.99,,2013-02-04 21:32:00,
2013-02-04 16:43:00,21.0,-99.9,29.92,WSW,240,9.0,14.0,-999,-99.99,,,-99.99,,2013-02-04 21:43:00,
2013-02-04 16:52:00,21.0,-99.9,29.92,WSW,240,9.0,14.0,-999,-99.99,,,-99.99,,2013-02-04 21:52:00,
2013-02-04 17:00:00,21.0,-99.9,29.91,SSW,200,6.0,9.0,-999,-99.99,,,-99.99,,2013-02-04 22:00:00,
2013-02-04 17:22:00,21.0,-99.9,29.91,SSW,200,6.0,9.0,-999,-99.99,,,-99.99,,2013-02-04 22:22:00,
2013-02-04 17:33:00,21.0,-99.9,29.91,SSW,200,6.0,9.0,-999,-99.99,,,-99.99,,2013-02-04 22:33:00,
2013-02-04 17:42:00,21.0,-99.9,29.91,SSW,200,6.0,9.0,-999,-99.99,,,-99.99,,2013-02-04 22:42:00,
2013-02-04 17:52:00,21.0,-99.9,29.91,SSW,200,6.0,9.0,-999,-99.99,,,-99.99,,2013-02-04 22:52:00,
2013-02-04 18:00:00,19.0,-99.9,29.90,South,190,7.0,10.0,-999,-99.99,,,-99.99,,2013-02-04 23:00:00,
2013-02-04 18:22:00,19.0,-99.9,29.90,South,190,7.0,10.0,-999,-99.99,,,-99.99,,2013-02-04 23:22:00,
2013-02-04 18:32:00,19.0,-99.9,29.90,South,190,7.0,10.0,-999,-99.99,,,-99.99,,2013-02-04 23:32:00,
2013-02-04 18:42:00,19.0,-99.9,29.90,South,190,7.0,10.0,-999,-99.99,,,-99.99,,2013-02-04 23:42:00,
2013-02-04 18:53:00,19.0,-99.9,29.90,South,190,7.0,10.0,-999,-99.99,,,-99.99,,2013-02-04 23:53:00,
2013-02-04 19:00:00,19.0,-99.9,29.92,South,190,7.0,9.0,-999,-99.99,,,-99.99,,2013-02-05 00:00:00,
2013-02-04 19:22:00,19.0,-99.9,29.92,South,190,7.0,9.0,-999,-99.99,,,-99.99,,2013-02-05 00:22:00,
2013-02-04 19:32:00,19.0,-99.9,29.92,South,190,7.0,9.0,-999,-99.99,,,-99.99,,2013-02-05 00:32:00,
2013-02-04 19:42:00,19.0,-99.9,29.92,South,190,7.0,9.0,-999,-99.99,,,-99.99,,2013-02-05 00:42:00,
2013-02-04 19:52:00,19.0,-99.9,29.92,South,190,7.0,9.0,-999,-99.99,,,-99.99,,2013-02-05 00:52:00,
2013-02-04 20:00:00,18.0,-99.9,29.93,South,180,6.0,9.0,-999,-99.99,,,-99.99,,2013-02-05 01:00:00,
2013-02-04 20:22:00,18.0,-99.9,29.93,South,180,6.0,9.0,-999,-99.99,,,-99.99,,2013-02-05 01:22:00,
2013-02-04 20:33:00,18.0,-99.9,29.93,South,180,6.0,9.0,-999,-99.99,,,-99.99,,2013-02-05 01:33:00,
2013-02-04 20:42:00,18.0,-99.9,29.93,South,180,6.0,9.0,-999,-99.99,,,-99.99,,2013-02-05 01:42:00,
2013-02-04 20:52:00,18.0,-99.9,29.93,South,180,6.0,9.0,-999,-99.99,,,-99.99,,2013-02-05 01:52:00,
2013-02-04 21:00:00,17.0,-99.9,29.92,SSW,200,7.0,10.0,-999,-99.99,,,-99.99,,2013-02-05 02:00:00,
2013-02-04 21:22:00,17.0,-99.9,29.92,SSW,200,7.0,10.0,-999,-99.99,,,-99.99,,2013-02-05 02:22:00,
2013-02-04 21:32:00,17.0,-99.9,29.92,SSW,200,7.0,10.0,-999,-99.99,,,-99.99,,2013-02-05 02:32:00,
2013-02-04 21:42:00,17.0,-99.9,29.92,SSW,200,7.0,10.0,-999,-99.99,,,-99.99,,2013-02-05 02:42:00,
2013-02-04 21:52:00,17.0,-99.9,29.92,SSW,200,7.0,10.0,-999,-99.99,,,-99.99,,2013-02-05 02:52:00,
2013-02-04 22:00:00,17.0,-99.9,29.93,SSW,210,8.0,11.0,-999,-99.99,,,-99.99,,2013-02-05 03:00:00,
2013-02-04 22:32:00,17.0,-99.9,29.93,SSW,210,8.0,11.0,-999,-99.99,,,-99.99,,2013-02-05 03:32:00,
2013-02-04 22:42:00,17.0,-99.9,29.93,SSW,210,8.0,11.0,-999,-99.99,,,-99.99,,2013-02-05 03:42:00,
2013-02-04 22:52:00,17.0,-99.9,29.93,SSW,210,8.0,11.0,-999,-99.99,,,-99.99,,2013-02-05 03:52:00,
2013-02-04 23:00:00,17.0,-99.9,29.93,SW,220,7.0,9.0,-999,-99.99,,,-99.99,,2013-02-05 04:00:00,
2013-02-04 23:22:00,17.0,-99.9,29.93,SW,220,7.0,9.0,-999,-99.99,,,-99.99,,2013-02-05 04:22:00,
2013-02-04 23:32:00,17.0,-99.9,29.93,SW,220,7.0,9.0,-999,-99.99,,,-99.99,,2013-02-05 04:32:00,
2013-02-04 23:42:00,17.0,-99.9,29.93,SW,220,7.0,9.0,-999,-99.99,,,-99.99,,2013-02-05 04:42:00,
2013-02-04 23:52:00,17.0,-99.9,29.93,SW,220,7.0,9.0,-999,-99.99,,,-99.99,,2013-02-05 04:52:00,